sensor_id;sensor_type;location;lat;lon;timestamp;P1;durP1;ratioP1;P2;durP2;ratioP2
55815;SDS011;41744;52.404;16.942;2024-03-29T00:01:50;3.35;;;1.88;;
55815;SDS011;41744;52.404;16.942;2024-03-29T00:04:16;4.17;;;1.63;;
55815;SDS011;41744;52.404;16.942;2024-03-29T00:06:42;4.33;;;1.90;;
55815;SDS011;41744;52.404;16.942;2024-03-29T00:09:08;3.90;;;1.80;;
55815;SDS011;41744;52.404;16.942;2024-03-29T00:11:34;3.70;;;1.83;;
55815;SDS011;41744;52.404;16.942;2024-03-29T00:14:00;3.58;;;1.33;;
55815;SDS011;41744;52.404;16.942;2024-03-29T00:16:26;4.57;;;1.70;;
55815;SDS011;41744;52.404;16.942;2024-03-29T00:18:52;3.43;;;1.70;;
55815;SDS011;41744;52.404;16.942;2024-03-29T00:21:18;3.28;;;1.50;;
55815;SDS011;41744;52.404;16.942;2024-03-29T00:23:44;2.83;;;1.60;;
55815;SDS011;41744;52.404;16.942;2024-03-29T00:26:10;3.67;;;1.83;;
55815;SDS011;41744;52.404;16.942;2024-03-29T00:28:36;3.80;;;1.70;;
55815;SDS011;41744;52.404;16.942;2024-03-29T00:31:03;2.37;;;1.37;;
55815;SDS011;41744;52.404;16.942;2024-03-29T00:33:29;6.53;;;2.43;;
55815;SDS011;41744;52.404;16.942;2024-03-29T00:35:55;3.08;;;1.40;;
55815;SDS011;41744;52.404;16.942;2024-03-29T00:38:21;4.57;;;1.77;;
55815;SDS011;41744;52.404;16.942;2024-03-29T00:40:47;3.87;;;1.90;;
55815;SDS011;41744;52.404;16.942;2024-03-29T00:43:14;5.57;;;1.77;;
55815;SDS011;41744;52.404;16.942;2024-03-29T00:45:40;2.83;;;1.77;;
55815;SDS011;41744;52.404;16.942;2024-03-29T00:48:06;5.53;;;1.80;;
55815;SDS011;41744;52.404;16.942;2024-03-29T00:50:32;3.00;;;1.60;;
55815;SDS011;41744;52.404;16.942;2024-03-29T00:52:59;5.87;;;1.80;;
55815;SDS011;41744;52.404;16.942;2024-03-29T00:55:25;8.53;;;2.13;;
55815;SDS011;41744;52.404;16.942;2024-03-29T00:57:51;5.70;;;1.93;;
55815;SDS011;41744;52.404;16.942;2024-03-29T01:00:17;5.63;;;1.70;;
55815;SDS011;41744;52.404;16.942;2024-03-29T01:02:43;4.83;;;1.90;;
55815;SDS011;41744;52.404;16.942;2024-03-29T01:05:09;12.00;;;3.33;;
55815;SDS011;41744;52.404;16.942;2024-03-29T01:07:35;4.70;;;2.13;;
55815;SDS011;41744;52.404;16.942;2024-03-29T01:10:01;3.07;;;1.67;;
55815;SDS011;41744;52.404;16.942;2024-03-29T01:12:27;5.38;;;2.30;;
55815;SDS011;41744;52.404;16.942;2024-03-29T01:14:53;4.63;;;2.07;;
55815;SDS011;41744;52.404;16.942;2024-03-29T01:17:19;4.43;;;2.20;;
55815;SDS011;41744;52.404;16.942;2024-03-29T01:19:46;6.28;;;2.30;;
55815;SDS011;41744;52.404;16.942;2024-03-29T01:22:12;3.22;;;1.90;;
55815;SDS011;41744;52.404;16.942;2024-03-29T01:24:38;6.75;;;2.95;;
55815;SDS011;41744;52.404;16.942;2024-03-29T01:27:04;4.63;;;2.20;;
55815;SDS011;41744;52.404;16.942;2024-03-29T01:29:31;4.07;;;2.07;;
55815;SDS011;41744;52.404;16.942;2024-03-29T01:31:58;3.70;;;2.17;;
55815;SDS011;41744;52.404;16.942;2024-03-29T01:34:24;3.67;;;1.83;;
55815;SDS011;41744;52.404;16.942;2024-03-29T01:36:50;4.33;;;2.00;;
55815;SDS011;41744;52.404;16.942;2024-03-29T01:39:16;5.17;;;1.93;;
55815;SDS011;41744;52.404;16.942;2024-03-29T01:41:44;3.80;;;1.97;;
55815;SDS011;41744;52.404;16.942;2024-03-29T01:44:10;3.37;;;1.70;;
55815;SDS011;41744;52.404;16.942;2024-03-29T01:46:36;6.27;;;2.00;;
55815;SDS011;41744;52.404;16.942;2024-03-29T01:49:04;4.33;;;1.87;;
55815;SDS011;41744;52.404;16.942;2024-03-29T01:51:30;3.60;;;1.63;;
55815;SDS011;41744;52.404;16.942;2024-03-29T01:53:57;3.23;;;1.70;;
55815;SDS011;41744;52.404;16.942;2024-03-29T01:56:24;4.13;;;1.53;;
55815;SDS011;41744;52.404;16.942;2024-03-29T01:58:51;3.80;;;1.57;;
55815;SDS011;41744;52.404;16.942;2024-03-29T02:01:19;2.97;;;1.70;;
55815;SDS011;41744;52.404;16.942;2024-03-29T02:03:45;4.43;;;1.77;;
55815;SDS011;41744;52.404;16.942;2024-03-29T02:06:11;5.53;;;1.40;;
55815;SDS011;41744;52.404;16.942;2024-03-29T02:08:38;2.75;;;1.42;;
55815;SDS011;41744;52.404;16.942;2024-03-29T02:11:04;3.03;;;1.45;;
55815;SDS011;41744;52.404;16.942;2024-03-29T02:13:30;2.17;;;1.17;;
55815;SDS011;41744;52.404;16.942;2024-03-29T02:15:57;2.47;;;0.93;;
55815;SDS011;41744;52.404;16.942;2024-03-29T02:18:23;2.53;;;1.07;;
55815;SDS011;41744;52.404;16.942;2024-03-29T02:20:49;2.00;;;0.90;;
55815;SDS011;41744;52.404;16.942;2024-03-29T02:23:19;3.00;;;1.40;;
55815;SDS011;41744;52.404;16.942;2024-03-29T02:25:45;1.60;;;1.07;;
55815;SDS011;41744;52.404;16.942;2024-03-29T02:28:15;1.83;;;1.20;;
55815;SDS011;41744;52.404;16.942;2024-03-29T02:30:42;3.77;;;1.27;;
55815;SDS011;41744;52.404;16.942;2024-03-29T02:33:08;2.77;;;1.27;;
55815;SDS011;41744;52.404;16.942;2024-03-29T02:35:34;1.50;;;1.10;;
55815;SDS011;41744;52.404;16.942;2024-03-29T02:38:00;2.17;;;1.10;;
55815;SDS011;41744;52.404;16.942;2024-03-29T02:40:26;3.23;;;1.10;;
55815;SDS011;41744;52.404;16.942;2024-03-29T02:42:52;1.70;;;0.83;;
55815;SDS011;41744;52.404;16.942;2024-03-29T02:45:18;2.30;;;1.00;;
55815;SDS011;41744;52.404;16.942;2024-03-29T02:47:44;1.40;;;0.87;;
55815;SDS011;41744;52.404;16.942;2024-03-29T02:50:10;1.93;;;1.10;;
55815;SDS011;41744;52.404;16.942;2024-03-29T02:52:36;2.08;;;1.00;;
55815;SDS011;41744;52.404;16.942;2024-03-29T02:55:02;1.63;;;0.80;;
55815;SDS011;41744;52.404;16.942;2024-03-29T02:57:28;1.27;;;0.82;;
55815;SDS011;41744;52.404;16.942;2024-03-29T02:59:55;1.77;;;0.90;;
55815;SDS011;41744;52.404;16.942;2024-03-29T03:02:21;1.57;;;0.90;;
55815;SDS011;41744;52.404;16.942;2024-03-29T03:04:47;1.83;;;0.90;;
55815;SDS011;41744;52.404;16.942;2024-03-29T03:07:13;1.57;;;0.90;;
55815;SDS011;41744;52.404;16.942;2024-03-29T03:09:57;4.80;;;0.97;;
55815;SDS011;41744;52.404;16.942;2024-03-29T03:12:42;4.13;;;0.90;;
55815;SDS011;41744;52.404;16.942;2024-03-29T03:15:09;1.90;;;0.90;;
55815;SDS011;41744;52.404;16.942;2024-03-29T03:17:35;3.33;;;1.40;;
55815;SDS011;41744;52.404;16.942;2024-03-29T03:20:01;3.77;;;1.33;;
55815;SDS011;41744;52.404;16.942;2024-03-29T03:22:30;3.13;;;1.30;;
55815;SDS011;41744;52.404;16.942;2024-03-29T03:24:56;2.60;;;1.30;;
55815;SDS011;41744;52.404;16.942;2024-03-29T03:27:22;4.17;;;1.13;;
55815;SDS011;41744;52.404;16.942;2024-03-29T03:29:48;2.37;;;1.20;;
55815;SDS011;41744;52.404;16.942;2024-03-29T03:32:14;6.70;;;1.60;;
55815;SDS011;41744;52.404;16.942;2024-03-29T03:34:40;3.33;;;1.50;;
55815;SDS011;41744;52.404;16.942;2024-03-29T03:37:06;2.50;;;1.30;;
55815;SDS011;41744;52.404;16.942;2024-03-29T03:39:32;2.23;;;1.43;;
55815;SDS011;41744;52.404;16.942;2024-03-29T03:41:58;2.10;;;1.20;;
55815;SDS011;41744;52.404;16.942;2024-03-29T03:44:24;2.63;;;1.20;;
55815;SDS011;41744;52.404;16.942;2024-03-29T03:46:51;2.73;;;1.50;;
55815;SDS011;41744;52.404;16.942;2024-03-29T03:49:17;5.53;;;1.40;;
55815;SDS011;41744;52.404;16.942;2024-03-29T03:51:43;2.67;;;1.47;;
55815;SDS011;41744;52.404;16.942;2024-03-29T03:54:09;3.23;;;1.40;;
55815;SDS011;41744;52.404;16.942;2024-03-29T03:56:35;2.42;;;1.38;;
55815;SDS011;41744;52.404;16.942;2024-03-29T03:59:01;3.20;;;1.63;;
55815;SDS011;41744;52.404;16.942;2024-03-29T04:01:27;3.67;;;2.07;;
55815;SDS011;41744;52.404;16.942;2024-03-29T04:03:53;4.07;;;2.33;;
55815;SDS011;41744;52.404;16.942;2024-03-29T04:06:19;4.93;;;2.60;;
55815;SDS011;41744;52.404;16.942;2024-03-29T04:08:46;4.57;;;2.80;;
55815;SDS011;41744;52.404;16.942;2024-03-29T04:11:12;4.20;;;2.50;;
55815;SDS011;41744;52.404;16.942;2024-03-29T04:13:38;5.63;;;2.80;;
55815;SDS011;41744;52.404;16.942;2024-03-29T04:16:06;8.07;;;3.00;;
55815;SDS011;41744;52.404;16.942;2024-03-29T04:18:32;7.00;;;3.20;;
55815;SDS011;41744;52.404;16.942;2024-03-29T04:21:02;4.53;;;2.80;;
55815;SDS011;41744;52.404;16.942;2024-03-29T04:23:28;6.20;;;3.13;;
55815;SDS011;41744;52.404;16.942;2024-03-29T04:25:55;4.67;;;2.70;;
55815;SDS011;41744;52.404;16.942;2024-03-29T04:28:21;5.27;;;2.80;;
55815;SDS011;41744;52.404;16.942;2024-03-29T04:30:57;4.47;;;2.10;;
55815;SDS011;41744;52.404;16.942;2024-03-29T04:33:23;3.33;;;2.10;;
55815;SDS011;41744;52.404;16.942;2024-03-29T04:36:03;4.17;;;2.27;;
55815;SDS011;41744;52.404;16.942;2024-03-29T04:38:29;5.23;;;1.83;;
55815;SDS011;41744;52.404;16.942;2024-03-29T04:40:56;2.27;;;1.70;;
55815;SDS011;41744;52.404;16.942;2024-03-29T04:43:26;2.53;;;1.70;;
55815;SDS011;41744;52.404;16.942;2024-03-29T04:46:09;5.03;;;2.03;;
55815;SDS011;41744;52.404;16.942;2024-03-29T04:48:35;5.83;;;2.00;;
55815;SDS011;41744;52.404;16.942;2024-03-29T04:51:01;3.27;;;1.80;;
55815;SDS011;41744;52.404;16.942;2024-03-29T04:53:28;4.77;;;1.70;;
55815;SDS011;41744;52.404;16.942;2024-03-29T04:55:54;3.70;;;1.77;;
55815;SDS011;41744;52.404;16.942;2024-03-29T04:58:21;4.00;;;1.80;;
55815;SDS011;41744;52.404;16.942;2024-03-29T05:00:48;4.33;;;1.70;;
55815;SDS011;41744;52.404;16.942;2024-03-29T05:03:14;5.93;;;1.70;;
55815;SDS011;41744;52.404;16.942;2024-03-29T05:05:40;3.73;;;1.77;;
55815;SDS011;41744;52.404;16.942;2024-03-29T05:08:06;3.72;;;1.52;;
55815;SDS011;41744;52.404;16.942;2024-03-29T05:10:32;5.20;;;1.50;;
55815;SDS011;41744;52.404;16.942;2024-03-29T05:12:58;3.65;;;1.65;;
55815;SDS011;41744;52.404;16.942;2024-03-29T05:15:24;2.83;;;1.33;;
55815;SDS011;41744;52.404;16.942;2024-03-29T05:17:50;4.82;;;1.70;;
55815;SDS011;41744;52.404;16.942;2024-03-29T05:20:16;4.97;;;1.60;;
55815;SDS011;41744;52.404;16.942;2024-03-29T05:22:42;6.30;;;1.67;;
55815;SDS011;41744;52.404;16.942;2024-03-29T05:25:08;3.85;;;1.42;;
55815;SDS011;41744;52.404;16.942;2024-03-29T05:27:34;3.75;;;1.38;;
55815;SDS011;41744;52.404;16.942;2024-03-29T05:30:01;3.35;;;1.38;;
55815;SDS011;41744;52.404;16.942;2024-03-29T05:32:28;4.60;;;1.55;;
55815;SDS011;41744;52.404;16.942;2024-03-29T05:34:54;3.47;;;1.60;;
55815;SDS011;41744;52.404;16.942;2024-03-29T05:37:20;3.38;;;1.67;;
55815;SDS011;41744;52.404;16.942;2024-03-29T05:39:47;4.13;;;1.60;;
55815;SDS011;41744;52.404;16.942;2024-03-29T05:42:13;4.53;;;1.77;;
55815;SDS011;41744;52.404;16.942;2024-03-29T05:44:39;3.70;;;2.05;;
55815;SDS011;41744;52.404;16.942;2024-03-29T05:47:05;3.22;;;1.92;;
55815;SDS011;41744;52.404;16.942;2024-03-29T05:49:31;8.02;;;1.65;;
55815;SDS011;41744;52.404;16.942;2024-03-29T05:51:58;3.10;;;1.70;;
55815;SDS011;41744;52.404;16.942;2024-03-29T05:54:24;5.30;;;1.73;;
55815;SDS011;41744;52.404;16.942;2024-03-29T05:56:50;3.03;;;1.73;;
55815;SDS011;41744;52.404;16.942;2024-03-29T05:59:16;3.80;;;2.03;;
55815;SDS011;41744;52.404;16.942;2024-03-29T06:01:42;5.07;;;1.95;;
55815;SDS011;41744;52.404;16.942;2024-03-29T06:04:08;3.67;;;1.70;;
55815;SDS011;41744;52.404;16.942;2024-03-29T06:06:41;2.80;;;1.60;;
55815;SDS011;41744;52.404;16.942;2024-03-29T06:09:07;2.60;;;1.60;;
55815;SDS011;41744;52.404;16.942;2024-03-29T06:11:33;3.50;;;1.85;;
55815;SDS011;41744;52.404;16.942;2024-03-29T06:13:59;3.83;;;2.20;;
55815;SDS011;41744;52.404;16.942;2024-03-29T06:16:25;3.67;;;2.08;;
55815;SDS011;41744;52.404;16.942;2024-03-29T06:19:10;2.90;;;1.83;;
55815;SDS011;41744;52.404;16.942;2024-03-29T06:21:37;5.25;;;1.85;;
55815;SDS011;41744;52.404;16.942;2024-03-29T06:24:10;3.58;;;2.13;;
55815;SDS011;41744;52.404;16.942;2024-03-29T06:26:41;6.38;;;2.15;;
55815;SDS011;41744;52.404;16.942;2024-03-29T06:29:07;3.97;;;1.80;;
55815;SDS011;41744;52.404;16.942;2024-03-29T06:31:37;5.15;;;2.00;;
55815;SDS011;41744;52.404;16.942;2024-03-29T06:34:03;3.15;;;1.80;;
55815;SDS011;41744;52.404;16.942;2024-03-29T06:36:29;4.82;;;2.00;;
55815;SDS011;41744;52.404;16.942;2024-03-29T06:38:56;3.80;;;1.80;;
55815;SDS011;41744;52.404;16.942;2024-03-29T06:41:22;6.28;;;2.10;;
55815;SDS011;41744;52.404;16.942;2024-03-29T06:43:48;4.28;;;2.00;;
55815;SDS011;41744;52.404;16.942;2024-03-29T06:46:14;5.55;;;2.05;;
55815;SDS011;41744;52.404;16.942;2024-03-29T06:48:41;3.88;;;1.88;;
55815;SDS011;41744;52.404;16.942;2024-03-29T06:51:07;4.88;;;1.80;;
55815;SDS011;41744;52.404;16.942;2024-03-29T06:53:33;3.58;;;1.90;;
55815;SDS011;41744;52.404;16.942;2024-03-29T06:56:02;3.78;;;1.58;;
55815;SDS011;41744;52.404;16.942;2024-03-29T06:58:28;3.10;;;1.73;;
55815;SDS011;41744;52.404;16.942;2024-03-29T07:00:54;3.42;;;1.90;;
55815;SDS011;41744;52.404;16.942;2024-03-29T07:03:20;3.75;;;1.63;;
55815;SDS011;41744;52.404;16.942;2024-03-29T07:05:46;4.55;;;1.70;;
55815;SDS011;41744;52.404;16.942;2024-03-29T07:08:12;4.97;;;1.80;;
55815;SDS011;41744;52.404;16.942;2024-03-29T07:10:38;5.47;;;1.80;;
55815;SDS011;41744;52.404;16.942;2024-03-29T07:13:07;2.67;;;1.70;;
55815;SDS011;41744;52.404;16.942;2024-03-29T07:15:34;3.78;;;1.63;;
55815;SDS011;41744;52.404;16.942;2024-03-29T07:18:00;5.20;;;1.88;;
55815;SDS011;41744;52.404;16.942;2024-03-29T07:20:28;5.50;;;2.00;;
55815;SDS011;41744;52.404;16.942;2024-03-29T07:22:54;6.32;;;2.30;;
55815;SDS011;41744;52.404;16.942;2024-03-29T07:25:20;4.18;;;1.90;;
55815;SDS011;41744;52.404;16.942;2024-03-29T07:27:47;4.32;;;1.83;;
55815;SDS011;41744;52.404;16.942;2024-03-29T07:30:15;4.38;;;1.75;;
55815;SDS011;41744;52.404;16.942;2024-03-29T07:32:41;3.72;;;1.75;;
55815;SDS011;41744;52.404;16.942;2024-03-29T07:35:08;4.90;;;1.85;;
55815;SDS011;41744;52.404;16.942;2024-03-29T07:37:34;3.97;;;1.65;;
55815;SDS011;41744;52.404;16.942;2024-03-29T07:40:00;4.97;;;1.67;;
55815;SDS011;41744;52.404;16.942;2024-03-29T07:42:26;4.80;;;1.60;;
55815;SDS011;41744;52.404;16.942;2024-03-29T07:44:52;4.75;;;1.63;;
55815;SDS011;41744;52.404;16.942;2024-03-29T07:47:18;5.03;;;1.90;;
55815;SDS011;41744;52.404;16.942;2024-03-29T07:49:47;4.57;;;1.70;;
55815;SDS011;41744;52.404;16.942;2024-03-29T07:52:13;11.88;;;1.73;;
55815;SDS011;41744;52.404;16.942;2024-03-29T07:54:39;3.00;;;1.58;;
55815;SDS011;41744;52.404;16.942;2024-03-29T07:57:06;5.25;;;1.30;;
55815;SDS011;41744;52.404;16.942;2024-03-29T07:59:33;3.38;;;1.38;;
55815;SDS011;41744;52.404;16.942;2024-03-29T08:01:59;6.07;;;1.65;;
55815;SDS011;41744;52.404;16.942;2024-03-29T08:04:27;3.42;;;1.60;;
55815;SDS011;41744;52.404;16.942;2024-03-29T08:06:53;5.25;;;1.65;;
55815;SDS011;41744;52.404;16.942;2024-03-29T08:09:20;5.30;;;1.70;;
55815;SDS011;41744;52.404;16.942;2024-03-29T08:11:46;3.17;;;1.52;;
55815;SDS011;41744;52.404;16.942;2024-03-29T08:14:12;2.60;;;1.52;;
55815;SDS011;41744;52.404;16.942;2024-03-29T08:16:38;6.30;;;1.85;;
55815;SDS011;41744;52.404;16.942;2024-03-29T08:19:04;3.65;;;1.30;;
55815;SDS011;41744;52.404;16.942;2024-03-29T08:21:30;3.85;;;1.60;;
55815;SDS011;41744;52.404;16.942;2024-03-29T08:23:56;3.25;;;1.38;;
55815;SDS011;41744;52.404;16.942;2024-03-29T08:26:22;2.17;;;1.10;;
55815;SDS011;41744;52.404;16.942;2024-03-29T08:28:49;3.63;;;1.40;;
55815;SDS011;41744;52.404;16.942;2024-03-29T08:31:15;2.40;;;1.45;;
55815;SDS011;41744;52.404;16.942;2024-03-29T08:33:42;4.93;;;1.40;;
55815;SDS011;41744;52.404;16.942;2024-03-29T08:36:08;2.97;;;1.27;;
55815;SDS011;41744;52.404;16.942;2024-03-29T08:38:36;5.00;;;1.60;;
55815;SDS011;41744;52.404;16.942;2024-03-29T08:41:02;3.05;;;1.27;;
55815;SDS011;41744;52.404;16.942;2024-03-29T08:43:28;4.05;;;1.40;;
55815;SDS011;41744;52.404;16.942;2024-03-29T08:45:54;4.90;;;1.48;;
55815;SDS011;41744;52.404;16.942;2024-03-29T08:48:21;3.28;;;1.13;;
55815;SDS011;41744;52.404;16.942;2024-03-29T08:50:47;4.20;;;1.33;;
55815;SDS011;41744;52.404;16.942;2024-03-29T08:53:13;2.15;;;1.20;;
55815;SDS011;41744;52.404;16.942;2024-03-29T08:55:39;7.00;;;1.30;;
55815;SDS011;41744;52.404;16.942;2024-03-29T08:58:05;3.20;;;1.02;;
55815;SDS011;41744;52.404;16.942;2024-03-29T09:00:31;1.80;;;0.98;;
55815;SDS011;41744;52.404;16.942;2024-03-29T09:02:58;3.03;;;1.27;;
55815;SDS011;41744;52.404;16.942;2024-03-29T09:05:24;4.28;;;1.00;;
55815;SDS011;41744;52.404;16.942;2024-03-29T09:07:52;1.98;;;1.00;;
55815;SDS011;41744;52.404;16.942;2024-03-29T09:10:19;2.70;;;1.23;;
55815;SDS011;41744;52.404;16.942;2024-03-29T09:12:45;5.20;;;1.48;;
55815;SDS011;41744;52.404;16.942;2024-03-29T09:15:11;4.68;;;1.23;;
55815;SDS011;41744;52.404;16.942;2024-03-29T09:17:41;2.00;;;0.90;;
55815;SDS011;41744;52.404;16.942;2024-03-29T09:20:07;4.07;;;1.20;;
55815;SDS011;41744;52.404;16.942;2024-03-29T09:22:34;2.33;;;1.10;;
55815;SDS011;41744;52.404;16.942;2024-03-29T09:25:00;3.85;;;1.33;;
55815;SDS011;41744;52.404;16.942;2024-03-29T09:27:27;2.70;;;1.20;;
55815;SDS011;41744;52.404;16.942;2024-03-29T09:29:54;1.90;;;1.05;;
55815;SDS011;41744;52.404;16.942;2024-03-29T09:32:23;2.97;;;1.20;;
55815;SDS011;41744;52.404;16.942;2024-03-29T09:34:49;2.60;;;0.80;;
55815;SDS011;41744;52.404;16.942;2024-03-29T09:37:16;2.72;;;0.90;;
55815;SDS011;41744;52.404;16.942;2024-03-29T09:39:43;1.55;;;0.85;;
55815;SDS011;41744;52.404;16.942;2024-03-29T09:42:09;4.55;;;1.40;;
55815;SDS011;41744;52.404;16.942;2024-03-29T09:44:39;3.45;;;1.23;;
55815;SDS011;41744;52.404;16.942;2024-03-29T09:47:05;4.78;;;1.08;;
55815;SDS011;41744;52.404;16.942;2024-03-29T09:49:32;2.65;;;1.10;;
55815;SDS011;41744;52.404;16.942;2024-03-29T09:52:01;3.22;;;1.00;;
55815;SDS011;41744;52.404;16.942;2024-03-29T09:54:28;3.00;;;0.82;;
55815;SDS011;41744;52.404;16.942;2024-03-29T09:56:55;2.45;;;0.80;;
55815;SDS011;41744;52.404;16.942;2024-03-29T09:59:22;2.65;;;0.80;;
55815;SDS011;41744;52.404;16.942;2024-03-29T10:01:48;4.35;;;1.00;;
55815;SDS011;41744;52.404;16.942;2024-03-29T10:04:16;3.55;;;1.00;;
55815;SDS011;41744;52.404;16.942;2024-03-29T10:06:46;1.80;;;0.93;;
55815;SDS011;41744;52.404;16.942;2024-03-29T10:09:14;2.10;;;0.73;;
55815;SDS011;41744;52.404;16.942;2024-03-29T10:11:41;2.67;;;0.80;;
55815;SDS011;41744;52.404;16.942;2024-03-29T10:14:07;4.22;;;0.80;;
55815;SDS011;41744;52.404;16.942;2024-03-29T10:16:33;3.78;;;0.80;;
55815;SDS011;41744;52.404;16.942;2024-03-29T10:18:59;5.22;;;1.60;;
55815;SDS011;41744;52.404;16.942;2024-03-29T10:21:25;2.47;;;0.77;;
55815;SDS011;41744;52.404;16.942;2024-03-29T10:23:52;2.22;;;0.85;;
55815;SDS011;41744;52.404;16.942;2024-03-29T10:26:18;2.95;;;1.05;;
55815;SDS011;41744;52.404;16.942;2024-03-29T10:28:45;3.90;;;0.77;;
55815;SDS011;41744;52.404;16.942;2024-03-29T10:31:12;3.47;;;0.85;;
55815;SDS011;41744;52.404;16.942;2024-03-29T10:33:39;3.83;;;1.00;;
55815;SDS011;41744;52.404;16.942;2024-03-29T10:36:07;3.85;;;1.23;;
55815;SDS011;41744;52.404;16.942;2024-03-29T10:38:37;1.98;;;0.60;;
55815;SDS011;41744;52.404;16.942;2024-03-29T10:41:03;4.72;;;0.90;;
55815;SDS011;41744;52.404;16.942;2024-03-29T10:43:31;2.08;;;0.60;;
55815;SDS011;41744;52.404;16.942;2024-03-29T10:45:59;2.78;;;0.90;;
55815;SDS011;41744;52.404;16.942;2024-03-29T10:48:26;1.70;;;0.77;;
55815;SDS011;41744;52.404;16.942;2024-03-29T10:50:56;2.75;;;1.02;;
55815;SDS011;41744;52.404;16.942;2024-03-29T10:53:24;2.03;;;0.82;;
55815;SDS011;41744;52.404;16.942;2024-03-29T10:55:53;2.40;;;0.90;;
55815;SDS011;41744;52.404;16.942;2024-03-29T10:58:20;10.55;;;1.10;;
55815;SDS011;41744;52.404;16.942;2024-03-29T11:00:49;2.08;;;0.80;;
55815;SDS011;41744;52.404;16.942;2024-03-29T11:05:48;2.70;;;0.85;;
55815;SDS011;41744;52.404;16.942;2024-03-29T11:08:25;2.80;;;0.70;;
55815;SDS011;41744;52.404;16.942;2024-03-29T11:10:54;2.35;;;0.90;;
55815;SDS011;41744;52.404;16.942;2024-03-29T11:15:54;2.45;;;0.90;;
55815;SDS011;41744;52.404;16.942;2024-03-29T11:18:21;1.42;;;0.65;;
55815;SDS011;41744;52.404;16.942;2024-03-29T11:20:49;2.45;;;0.88;;
55815;SDS011;41744;52.404;16.942;2024-03-29T11:23:19;3.45;;;0.93;;
55815;SDS011;41744;52.404;16.942;2024-03-29T11:25:46;2.05;;;0.80;;
55815;SDS011;41744;52.404;16.942;2024-03-29T11:28:14;2.60;;;0.98;;
55815;SDS011;41744;52.404;16.942;2024-03-29T11:30:46;4.20;;;0.88;;
55815;SDS011;41744;52.404;16.942;2024-03-29T11:33:29;3.80;;;0.88;;
55815;SDS011;41744;52.404;16.942;2024-03-29T11:35:55;1.15;;;0.60;;
55815;SDS011;41744;52.404;16.942;2024-03-29T11:38:21;1.25;;;0.60;;
55815;SDS011;41744;52.404;16.942;2024-03-29T11:43:28;3.13;;;0.60;;
55815;SDS011;41744;52.404;16.942;2024-03-29T11:45:55;3.22;;;0.70;;
55815;SDS011;41744;52.404;16.942;2024-03-29T11:48:23;1.90;;;0.60;;
55815;SDS011;41744;52.404;16.942;2024-03-29T11:50:52;2.53;;;0.70;;
55815;SDS011;41744;52.404;16.942;2024-03-29T11:53:19;2.10;;;0.70;;
55815;SDS011;41744;52.404;16.942;2024-03-29T11:55:45;1.52;;;0.70;;
55815;SDS011;41744;52.404;16.942;2024-03-29T11:58:11;3.20;;;0.90;;
55815;SDS011;41744;52.404;16.942;2024-03-29T12:00:38;3.80;;;0.88;;
55815;SDS011;41744;52.404;16.942;2024-03-29T12:03:05;3.13;;;0.70;;
55815;SDS011;41744;52.404;16.942;2024-03-29T12:05:32;1.35;;;0.60;;
55815;SDS011;41744;52.404;16.942;2024-03-29T12:07:58;3.90;;;0.70;;
55815;SDS011;41744;52.404;16.942;2024-03-29T12:10:28;2.38;;;0.65;;
55815;SDS011;41744;52.404;16.942;2024-03-29T12:12:58;4.07;;;0.60;;
55815;SDS011;41744;52.404;16.942;2024-03-29T12:15:26;2.92;;;0.75;;
55815;SDS011;41744;52.404;16.942;2024-03-29T12:17:56;3.92;;;0.93;;
55815;SDS011;41744;52.404;16.942;2024-03-29T12:20:22;2.60;;;0.85;;
55815;SDS011;41744;52.404;16.942;2024-03-29T12:22:49;1.48;;;0.85;;
55815;SDS011;41744;52.404;16.942;2024-03-29T12:25:15;1.45;;;0.60;;
55815;SDS011;41744;52.404;16.942;2024-03-29T12:27:43;3.30;;;0.75;;
55815;SDS011;41744;52.404;16.942;2024-03-29T12:30:11;2.35;;;0.75;;
55815;SDS011;41744;52.404;16.942;2024-03-29T12:32:38;2.65;;;0.60;;
55815;SDS011;41744;52.404;16.942;2024-03-29T12:35:10;1.92;;;0.60;;
55815;SDS011;41744;52.404;16.942;2024-03-29T12:37:37;2.40;;;0.60;;
55815;SDS011;41744;52.404;16.942;2024-03-29T12:40:04;3.38;;;0.60;;
55815;SDS011;41744;52.404;16.942;2024-03-29T12:42:40;2.10;;;0.70;;
55815;SDS011;41744;52.404;16.942;2024-03-29T12:45:06;6.10;;;0.88;;
55815;SDS011;41744;52.404;16.942;2024-03-29T12:47:32;2.92;;;0.68;;
55815;SDS011;41744;52.404;16.942;2024-03-29T12:49:59;4.05;;;0.60;;
55815;SDS011;41744;52.404;16.942;2024-03-29T12:52:39;3.22;;;0.80;;
55815;SDS011;41744;52.404;16.942;2024-03-29T12:55:06;1.23;;;0.50;;
55815;SDS011;41744;52.404;16.942;2024-03-29T12:57:35;1.38;;;0.60;;
55815;SDS011;41744;52.404;16.942;2024-03-29T13:00:02;1.17;;;0.60;;
55815;SDS011;41744;52.404;16.942;2024-03-29T13:02:33;2.13;;;0.68;;
55815;SDS011;41744;52.404;16.942;2024-03-29T13:04:59;1.42;;;0.60;;
55815;SDS011;41744;52.404;16.942;2024-03-29T13:07:26;2.55;;;1.05;;
55815;SDS011;41744;52.404;16.942;2024-03-29T13:09:53;2.65;;;0.65;;
55815;SDS011;41744;52.404;16.942;2024-03-29T13:12:19;2.10;;;0.70;;
55815;SDS011;41744;52.404;16.942;2024-03-29T13:14:45;1.88;;;0.70;;
55815;SDS011;41744;52.404;16.942;2024-03-29T13:17:11;1.25;;;0.60;;
55815;SDS011;41744;52.404;16.942;2024-03-29T13:19:37;2.22;;;0.57;;
55815;SDS011;41744;52.404;16.942;2024-03-29T13:22:03;2.95;;;0.50;;
55815;SDS011;41744;52.404;16.942;2024-03-29T13:24:31;1.58;;;0.60;;
55815;SDS011;41744;52.404;16.942;2024-03-29T13:26:57;2.92;;;0.70;;
55815;SDS011;41744;52.404;16.942;2024-03-29T13:29:23;0.90;;;0.57;;
55815;SDS011;41744;52.404;16.942;2024-03-29T13:31:49;2.22;;;0.77;;
55815;SDS011;41744;52.404;16.942;2024-03-29T13:34:15;2.92;;;0.90;;
55815;SDS011;41744;52.404;16.942;2024-03-29T13:36:42;2.17;;;0.70;;
55815;SDS011;41744;52.404;16.942;2024-03-29T13:39:10;3.63;;;0.70;;
55815;SDS011;41744;52.404;16.942;2024-03-29T13:41:38;0.90;;;0.70;;
55815;SDS011;41744;52.404;16.942;2024-03-29T13:44:05;4.47;;;1.00;;
55815;SDS011;41744;52.404;16.942;2024-03-29T13:46:34;3.85;;;0.63;;
55815;SDS011;41744;52.404;16.942;2024-03-29T13:49:00;5.90;;;1.23;;
55815;SDS011;41744;52.404;16.942;2024-03-29T13:51:27;3.03;;;0.65;;
55815;SDS011;41744;52.404;16.942;2024-03-29T13:53:53;2.03;;;0.70;;
55815;SDS011;41744;52.404;16.942;2024-03-29T13:56:20;11.82;;;1.00;;
55815;SDS011;41744;52.404;16.942;2024-03-29T13:58:46;1.98;;;0.80;;
55815;SDS011;41744;52.404;16.942;2024-03-29T14:01:12;2.38;;;0.88;;
55815;SDS011;41744;52.404;16.942;2024-03-29T14:03:38;2.95;;;0.80;;
55815;SDS011;41744;52.404;16.942;2024-03-29T14:06:04;3.33;;;0.82;;
55815;SDS011;41744;52.404;16.942;2024-03-29T14:08:31;2.45;;;0.80;;
55815;SDS011;41744;52.404;16.942;2024-03-29T14:11:00;2.30;;;0.80;;
55815;SDS011;41744;52.404;16.942;2024-03-29T14:13:26;4.53;;;1.00;;
55815;SDS011;41744;52.404;16.942;2024-03-29T14:15:52;4.68;;;1.30;;
55815;SDS011;41744;52.404;16.942;2024-03-29T14:18:18;4.72;;;1.25;;
55815;SDS011;41744;52.404;16.942;2024-03-29T14:20:44;2.25;;;0.85;;
55815;SDS011;41744;52.404;16.942;2024-03-29T14:23:10;3.00;;;0.70;;
55815;SDS011;41744;52.404;16.942;2024-03-29T14:25:39;1.27;;;0.60;;
55815;SDS011;41744;52.404;16.942;2024-03-29T14:28:06;3.25;;;0.80;;
55815;SDS011;41744;52.404;16.942;2024-03-29T14:30:32;1.75;;;0.70;;
55815;SDS011;41744;52.404;16.942;2024-03-29T14:32:59;4.80;;;0.88;;
55815;SDS011;41744;52.404;16.942;2024-03-29T14:35:31;3.35;;;0.93;;
55815;SDS011;41744;52.404;16.942;2024-03-29T14:37:57;2.63;;;0.73;;
55815;SDS011;41744;52.404;16.942;2024-03-29T14:40:24;1.65;;;0.60;;